Time;durP1;ratioP1;P1;durP2;ratioP2;P2;SDS_P1;SDS_P2;PMS_P1;PMS_P2;Temp;Humidity;BMP_temperature;BMP_pressure;BME280_temperature;BME280_humidity;BME280_pressure;Samples;Min_cycle;Max_cycle;Signal;HPM_P1;HPM_P2
2023/01/31 00:02:27;;;;;;;10.17;4.80;;;15.20;60.50;;;;;;4992356;28;20454;-78
2023/01/31 00:04:55;;;;;;;12.10;4.10;;;15.20;60.40;;;;;;4996133;28;20476;-79
2023/01/31 00:07:23;;;;;;;8.23;3.50;;;15.20;60.40;;;;;;4998977;28;20457;-78
2023/01/31 00:09:51;;;;;;;12.60;3.97;;;15.20;60.30;;;;;;4997976;28;20489;-79
2023/01/31 00:12:19;;;;;;;9.83;4.40;;;15.20;60.20;;;;;;4995822;28;20484;-79
2023/01/31 00:14:47;;;;;;;9.57;4.63;;;15.10;60.30;;;;;;4996968;28;20457;-78
2023/01/31 00:17:17;;;;;;;11.40;4.80;;;15.10;60.20;;;;;;5000523;28;20456;-81
2023/01/31 00:19:45;;;;;;;9.73;4.27;;;15.10;60.20;;;;;;4997345;28;20454;-78
2023/01/31 00:22:13;;;;;;;15.40;4.07;;;15.20;60.20;;;;;;4997354;28;20456;-77
2023/01/31 00:24:41;;;;;;;11.70;4.33;;;15.10;60.10;;;;;;4995808;28;20453;-78
2023/01/31 00:27:09;;;;;;;8.23;4.07;;;15.10;60.80;;;;;;4984803;28;20476;-78
2023/01/31 00:29:37;;;;;;;10.17;4.13;;;15.10;60.20;;;;;;5000600;28;20481;-77
2023/01/31 00:32:05;;;;;;;12.67;4.10;;;15.10;60.10;;;;;;4997297;28;20464;-78
2023/01/31 00:34:35;;;;;;;8.20;4.00;;;15.10;60.20;;;;;;4995708;28;20437;-77
2023/01/31 00:37:03;;;;;;;9.10;3.93;;;15.10;60.20;;;;;;4999555;28;20444;-78
2023/01/31 00:39:31;;;;;;;11.23;4.37;;;15.10;60.20;;;;;;5000656;28;20444;-78
2023/01/31 00:41:59;;;;;;;7.90;4.10;;;15.10;60.40;;;;;;4994539;28;20472;-77
2023/01/31 00:44:27;;;;;;;6.67;3.60;;;15.10;60.30;;;;;;4993938;28;20456;-78
2023/01/31 00:46:55;;;;;;;12.50;4.00;;;15.10;60.60;;;;;;4996852;28;20445;-78
2023/01/31 00:49:23;;;;;;;8.10;3.83;;;15.10;60.50;;;;;;4992573;28;20508;-78
2023/01/31 00:51:53;;;;;;;8.83;4.10;;;15.10;60.60;;;;;;5002554;28;20469;-78
2023/01/31 00:54:21;;;;;;;10.77;4.30;;;15.10;60.60;;;;;;4999559;28;20453;-78
2023/01/31 00:56:49;;;;;;;7.00;3.80;;;15.10;60.70;;;;;;4999492;28;20464;-78
2023/01/31 00:59:17;;;;;;;11.27;4.20;;;15.10;60.70;;;;;;5004195;28;20439;-76
2023/01/31 01:01:45;;;;;;;12.57;4.03;;;15.10;60.60;;;;;;4996412;28;20465;-78
2023/01/31 01:04:13;;;;;;;7.50;3.93;;;15.10;60.70;;;;;;4999326;28;20499;-78
2023/01/31 01:06:42;;;;;;;8.23;3.93;;;15.10;60.70;;;;;;4997712;28;20529;-78
2023/01/31 01:09:11;;;;;;;7.67;3.90;;;15.10;60.70;;;;;;4998831;28;20453;-78
2023/01/31 01:11:39;;;;;;;12.43;3.80;;;15.10;60.60;;;;;;4999164;28;20469;-77
2023/01/31 01:14:07;;;;;;;11.07;3.83;;;15.10;60.60;;;;;;4999873;28;20505;-78
2023/01/31 01:16:36;;;;;;;8.87;3.50;;;15.00;60.40;;;;;;4998591;28;20455;-78
2023/01/31 01:19:05;;;;;;;9.07;3.97;;;15.10;60.70;;;;;;4995939;28;20445;-78
2023/01/31 01:21:36;;;;;;;8.07;3.57;;;15.00;60.50;;;;;;4996097;28;20469;-78
2023/01/31 01:24:05;;;;;;;7.50;3.83;;;15.00;60.40;;;;;;5003313;28;20465;-78
2023/01/31 01:26:34;;;;;;;8.20;3.50;;;15.00;60.50;;;;;;4996593;28;20453;-78
2023/01/31 01:29:03;;;;;;;9.23;4.40;;;15.00;60.30;;;;;;4996185;28;20448;-77
2023/01/31 01:31:31;;;;;;;9.10;4.17;;;15.00;60.20;;;;;;4996083;28;20564;-79
2023/01/31 01:34:00;;;;;;;7.73;3.70;;;15.00;60.30;;;;;;4995049;28;21028;-78
2023/01/31 01:36:28;;;;;;;8.00;3.73;;;15.00;60.40;;;;;;4998982;28;20437;-77
2023/01/31 01:38:56;;;;;;;9.77;3.83;;;15.00;60.30;;;;;;4997644;28;20440;-78
2023/01/31 01:41:24;;;;;;;8.67;4.00;;;14.90;60.20;;;;;;4997271;28;20453;-77
2023/01/31 01:43:53;;;;;;;13.00;4.00;;;14.90;60.30;;;;;;4997552;28;20442;-78
2023/01/31 01:46:24;;;;;;;8.13;3.40;;;14.90;60.20;;;;;;5005620;28;20444;-78
2023/01/31 01:48:54;;;;;;;9.40;3.70;;;14.90;60.30;;;;;;4995251;28;20466;-78
2023/01/31 01:51:22;;;;;;;11.87;3.97;;;14.90;60.30;;;;;;4991042;28;20484;-78
2023/01/31 01:53:52;;;;;;;9.20;4.47;;;14.90;60.30;;;;;;4994851;28;20520;-78
2023/01/31 01:56:21;;;;;;;8.60;3.70;;;14.90;60.20;;;;;;4992520;28;20469;-78
2023/01/31 01:58:55;;;;;;;10.73;3.90;;;14.90;60.30;;;;;;4994539;28;20461;-78
2023/01/31 02:01:23;;;;;;;6.90;3.90;;;14.90;60.40;;;;;;4992239;28;20469;-78
2023/01/31 02:03:51;;;;;;;13.40;4.50;;;14.90;60.40;;;;;;4995641;28;20544;-78
2023/01/31 02:06:18;;;;;;;9.63;4.20;;;14.90;60.50;;;;;;4998662;28;20457;-78
2023/01/31 02:08:47;;;;;;;10.90;3.43;;;14.90;60.50;;;;;;4994711;28;20458;-78
2023/01/31 02:11:18;;;;;;;11.23;4.00;;;14.90;60.40;;;;;;4997194;28;20499;-78
2023/01/31 02:13:47;;;;;;;12.07;4.50;;;14.90;60.40;;;;;;4994516;28;20462;-78
2023/01/31 02:16:16;;;;;;;9.83;3.60;;;14.90;60.30;;;;;;4995616;28;20453;-78
2023/01/31 02:18:45;;;;;;;9.70;3.53;;;14.90;60.30;;;;;;4992676;28;20457;-78
2023/01/31 02:21:50;;;;;;;8.40;3.47;;;14.90;60.30;;;;;;4998053;28;20567;-78
2023/01/31 02:24:35;;;;;;;8.90;3.90;;;14.90;60.40;;;;;;4995948;28;20476;-78
2023/01/31 02:27:26;;;;;;;6.50;3.50;;;14.90;60.40;;;;;;4995499;28;20484;-78
2023/01/31 02:30:14;;;;;;;7.67;4.57;;;14.80;60.30;;;;;;4993001;28;20453;-78
2023/01/31 02:32:52;;;;;;;7.83;3.50;;;14.80;60.40;;;;;;4993445;28;20448;-78
2023/01/31 02:35:27;;;;;;;10.50;3.73;;;14.80;60.30;;;;;;4994123;28;20468;-79
2023/01/31 02:38:00;;;;;;;10.73;3.30;;;14.80;60.30;;;;;;4994581;28;20530;-79
2023/01/31 02:40:31;;;;;;;9.87;4.10;;;14.80;60.10;;;;;;4994204;28;20465;-79
2023/01/31 02:43:01;;;;;;;11.37;4.17;;;14.80;60.20;;;;;;4994616;28;20452;-79
2023/01/31 02:45:34;;;;;;;9.57;3.70;;;14.70;60.10;;;;;;4994928;28;20460;-79
2023/01/31 02:48:07;;;;;;;12.73;4.50;;;14.70;60.00;;;;;;5002923;28;20455;-79
2023/01/31 02:50:38;;;;;;;10.83;3.93;;;14.70;59.90;;;;;;4997511;28;20481;-79
2023/01/31 02:53:10;;;;;;;9.80;4.10;;;14.80;60.00;;;;;;4998580;28;20980;-79
2023/01/31 02:58:28;;;;;;;11.33;3.57;;;14.70;59.90;;;;;;4993164;28;20453;-79
2023/01/31 03:00:56;;;;;;;10.30;4.10;;;14.70;60.00;;;;;;4993961;28;20480;-78
2023/01/31 03:03:27;;;;;;;7.07;3.80;;;14.70;60.10;;;;;;4998277;28;20576;-78
2023/01/31 03:06:34;;;;;;;9.27;3.90;;;14.70;60.00;;;;;;4992821;28;20465;-78
2023/01/31 03:09:04;;;;;;;12.10;4.00;;;14.70;59.80;;;;;;4991115;28;20465;-78
2023/01/31 03:11:36;;;;;;;14.87;4.57;;;14.70;60.00;;;;;;4992154;28;20492;-78
2023/01/31 03:14:08;;;;;;;8.50;3.57;;;14.70;60.00;;;;;;4994484;28;20445;-78
2023/01/31 03:19:25;;;;;;;9.03;3.63;;;14.70;60.00;;;;;;4996242;28;20536;-78
2023/01/31 03:21:56;;;;;;;13.10;4.20;;;14.70;59.90;;;;;;4992782;28;20472;-78
2023/01/31 03:24:25;;;;;;;7.40;3.90;;;14.60;59.80;;;;;;4991425;28;20468;-78
2023/01/31 03:26:53;;;;;;;12.60;3.80;;;14.60;59.80;;;;;;4988154;28;20473;-78
2023/01/31 03:29:21;;;;;;;12.87;4.00;;;14.60;59.80;;;;;;4993769;28;20548;-78
2023/01/31 03:31:52;;;;;;;7.80;3.90;;;14.60;59.80;;;;;;4991405;28;20489;-78
2023/01/31 03:34:20;;;;;;;6.10;3.50;;;14.60;59.80;;;;;;4993354;28;20457;-78
2023/01/31 03:36:53;;;;;;;10.90;3.90;;;14.60;59.80;;;;;;4992981;28;20452;-77
2023/01/31 03:39:28;;;;;;;7.30;4.27;;;14.60;59.80;;;;;;4992309;28;20460;-78
2023/01/31 03:42:01;;;;;;;8.23;3.87;;;14.60;59.80;;;;;;4989243;28;20515;-78
2023/01/31 03:44:33;;;;;;;10.30;3.60;;;14.60;59.90;;;;;;4991716;28;20454;-78
2023/01/31 03:47:03;;;;;;;7.70;4.43;;;14.60;59.80;;;;;;4990447;28;20453;-78
2023/01/31 03:49:31;;;;;;;8.47;4.20;;;14.60;59.90;;;;;;4990238;28;20465;-79
2023/01/31 03:52:02;;;;;;;10.73;3.70;;;14.60;59.80;;;;;;4991696;28;20477;-78
2023/01/31 03:54:33;;;;;;;8.13;4.10;;;14.60;59.90;;;;;;4989418;28;20489;-77
2023/01/31 03:57:02;;;;;;;7.23;3.50;;;14.60;59.90;;;;;;4987842;28;20497;-77
2023/01/31 03:59:32;;;;;;;8.43;3.47;;;14.60;59.90;;;;;;4989202;28;20456;-78
2023/01/31 04:02:01;;;;;;;8.40;3.50;;;14.60;59.90;;;;;;4990036;28;20465;-77
2023/01/31 04:04:31;;;;;;;10.70;3.50;;;14.60;60.10;;;;;;4990694;28;20461;-79
2023/01/31 04:07:00;;;;;;;6.73;3.70;;;14.60;60.10;;;;;;4990680;28;20449;-78
2023/01/31 04:09:28;;;;;;;11.10;3.80;;;14.60;60.00;;;;;;4991153;28;20453;-78
2023/01/31 04:11:58;;;;;;;7.73;3.77;;;14.60;60.00;;;;;;4990137;28;20473;-78
2023/01/31 04:14:26;;;;;;;6.87;3.50;;;14.60;60.00;;;;;;4990049;28;20453;-78
2023/01/31 04:16:54;;;;;;;10.10;3.80;;;14.60;60.00;;;;;;4989276;28;20483;-78
2023/01/31 04:19:22;;;;;;;8.50;3.83;;;14.60;59.90;;;;;;4993261;28;20456;-78
2023/01/31 04:21:50;;;;;;;8.50;3.87;;;14.60;60.20;;;;;;4992147;28;20469;-77
2023/01/31 04:24:20;;;;;;;9.10;3.93;;;14.60;60.10;;;;;;4990926;28;20461;-78
2023/01/31 04:26:48;;;;;;;7.10;3.70;;;14.60;60.10;;;;;;4990321;28;20477;-78
2023/01/31 04:29:16;;;;;;;10.07;3.83;;;14.60;60.10;;;;;;4986593;28;20626;-78
2023/01/31 04:31:45;;;;;;;6.13;3.70;;;14.60;60.30;;;;;;4989047;28;20488;-77
2023/01/31 04:34:14;;;;;;;10.53;4.30;;;14.60;60.20;;;;;;4991653;28;20454;-78
2023/01/31 04:36:42;;;;;;;8.10;3.80;;;14.60;60.30;;;;;;4992813;28;20464;-78
2023/01/31 04:39:10;;;;;;;10.60;4.00;;;14.60;60.00;;;;;;4994676;28;20449;-78
2023/01/31 04:41:39;;;;;;;11.03;4.27;;;14.60;60.30;;;;;;4988779;28;20476;-78
2023/01/31 04:44:07;;;;;;;11.23;3.83;;;14.60;60.10;;;;;;4984100;28;20450;-78
2023/01/31 04:46:36;;;;;;;11.13;4.00;;;14.60;60.10;;;;;;4990212;28;20452;-78
2023/01/31 04:49:04;;;;;;;7.03;3.87;;;14.60;60.20;;;;;;4990205;28;20459;-78
2023/01/31 04:51:32;;;;;;;8.00;4.13;;;14.60;60.30;;;;;;4987965;28;20481;-77
2023/01/31 04:54:00;;;;;;;8.17;3.73;;;14.60;60.30;;;;;;4994190;28;20457;-78
2023/01/31 04:56:28;;;;;;;9.27;3.53;;;14.60;60.40;;;;;;4990423;28;20489;-78
2023/01/31 04:58:57;;;;;;;7.60;3.33;;;14.60;60.50;;;;;;4994209;28;20457;-78
2023/01/31 05:01:25;;;;;;;11.00;3.87;;;14.60;60.30;;;;;;4993879;28;20492;-78
2023/01/31 05:03:54;;;;;;;5.07;3.00;;;14.60;60.40;;;;;;4991501;28;20453;-78
2023/01/31 05:06:22;;;;;;;11.17;3.67;;;14.50;60.40;;;;;;4990108;28;20471;-78
2023/01/31 05:08:53;;;;;;;11.17;3.83;;;14.60;60.60;;;;;;4992824;28;20450;-77
2023/01/31 05:11:21;;;;;;;8.60;3.77;;;14.60;60.40;;;;;;4993279;28;20473;-78
2023/01/31 05:13:49;;;;;;;7.03;3.50;;;14.60;60.40;;;;;;4991368;28;20464;-78
2023/01/31 05:16:18;;;;;;;8.67;4.00;;;14.60;60.30;;;;;;4993649;28;20456;-78
2023/01/31 05:18:46;;;;;;;8.37;3.70;;;14.60;60.60;;;;;;4993965;28;20461;-78
2023/01/31 05:21:14;;;;;;;8.13;3.87;;;14.50;60.50;;;;;;4992933;28;20475;-78
2023/01/31 05:23:42;;;;;;;6.47;3.30;;;14.50;60.60;;;;;;4987192;28;20449;-78
2023/01/31 05:26:10;;;;;;;7.80;3.80;;;14.50;60.60;;;;;;4993117;28;20483;-78
2023/01/31 05:28:38;;;;;;;7.37;3.23;;;14.60;60.50;;;;;;4994938;28;20460;-78
2023/01/31 05:31:07;;;;;;;8.20;3.63;;;14.60;60.50;;;;;;4992895;28;20477;-78
2023/01/31 05:33:37;;;;;;;7.97;3.53;;;14.60;60.40;;;;;;4992577;28;20480;-78
2023/01/31 05:36:06;;;;;;;6.53;3.57;;;14.50;60.60;;;;;;4993670;28;20465;-78
2023/01/31 05:38:34;;;;;;;12.13;4.37;;;14.60;60.60;;;;;;4991096;28;20459;-78
2023/01/31 05:41:02;;;;;;;6.97;3.93;;;14.60;60.70;;;;;;4991611;28;20473;-78
2023/01/31 05:43:30;;;;;;;6.57;3.90;;;14.60;60.50;;;;;;4995030;28;20453;-78
2023/01/31 05:45:59;;;;;;;12.13;4.50;;;14.60;60.60;;;;;;4990577;28;20457;-78
2023/01/31 05:48:29;;;;;;;7.77;3.80;;;14.60;60.60;;;;;;4995365;28;20961;-78
2023/01/31 05:50:59;;;;;;;6.40;3.90;;;14.60;60.60;;;;;;4992891;28;20496;-78
2023/01/31 05:53:27;;;;;;;7.93;4.30;;;14.60;60.70;;;;;;4994125;28;20476;-78
2023/01/31 05:55:55;;;;;;;14.70;4.80;;;14.50;60.60;;;;;;4989485;28;20476;-78
2023/01/31 05:58:23;;;;;;;10.13;4.67;;;14.60;60.90;;;;;;4995181;28;20477;-78
2023/01/31 06:00:54;;;;;;;7.40;3.90;;;14.60;60.70;;;;;;4994961;28;20485;-78
2023/01/31 06:03:22;;;;;;;7.37;3.90;;;14.60;60.70;;;;;;4993128;28;20534;-78
2023/01/31 06:05:50;;;;;;;8.07;4.30;;;14.60;60.80;;;;;;4994810;28;20462;-78
2023/01/31 06:08:20;;;;;;;9.33;4.20;;;14.60;60.70;;;;;;4994321;28;20449;-78
2023/01/31 06:10:48;;;;;;;12.63;4.27;;;14.60;60.60;;;;;;4992037;28;20480;-78
2023/01/31 06:13:16;;;;;;;8.40;4.40;;;14.60;60.80;;;;;;4991069;28;20468;-78
2023/01/31 06:15:44;;;;;;;11.40;4.90;;;14.60;60.70;;;;;;4991293;28;20540;-78
2023/01/31 06:18:13;;;;;;;8.20;4.13;;;14.60;60.70;;;;;;4993570;28;20492;-77
2023/01/31 06:20:41;;;;;;;11.20;4.63;;;14.60;60.90;;;;;;4994864;28;20797;-78
2023/01/31 06:23:09;;;;;;;8.20;4.43;;;14.60;60.80;;;;;;4992958;28;20450;-78
2023/01/31 06:25:38;;;;;;;9.33;4.20;;;14.60;60.90;;;;;;4993207;28;20456;-78
2023/01/31 06:28:07;;;;;;;9.23;4.43;;;14.60;60.90;;;;;;4991122;28;20465;-78
2023/01/31 06:30:35;;;;;;;10.60;3.87;;;14.60;60.80;;;;;;4994331;28;20477;-78
2023/01/31 06:33:03;;;;;;;6.73;3.57;;;14.60;60.80;;;;;;4992833;28;20524;-78
2023/01/31 06:35:32;;;;;;;8.43;3.80;;;14.60;61.00;;;;;;4992580;28;20453;-78
2023/01/31 06:38:00;;;;;;;11.77;4.30;;;14.60;60.90;;;;;;4991483;28;20544;-78
2023/01/31 06:40:29;;;;;;;11.37;4.47;;;14.60;60.90;;;;;;4994491;28;20469;-78
2023/01/31 06:42:58;;;;;;;8.07;3.90;;;14.60;60.90;;;;;;4992487;28;20449;-78
2023/01/31 06:45:26;;;;;;;9.30;4.60;;;14.60;61.00;;;;;;4992290;28;20454;-78
2023/01/31 06:47:54;;;;;;;12.40;4.33;;;14.70;61.70;;;;;;4993912;28;20465;-78
2023/01/31 06:50:23;;;;;;;10.10;4.33;;;14.60;61.00;;;;;;4992515;28;20488;-79
2023/01/31 06:52:50;;;;;;;9.97;3.87;;;14.60;61.10;;;;;;5001517;28;20481;-79
2023/01/31 06:55:18;;;;;;;10.70;3.70;;;14.70;61.20;;;;;;4994975;28;20457;-79
2023/01/31 06:57:47;;;;;;;9.23;4.00;;;14.70;61.10;;;;;;4995164;28;20453;-79
2023/01/31 07:00:18;;;;;;;7.17;3.63;;;14.70;60.90;;;;;;4992527;28;20565;-78
2023/01/31 07:02:46;;;;;;;11.17;4.50;;;14.70;61.00;;;;;;4995087;28;20453;-79
2023/01/31 07:05:15;;;;;;;16.20;4.87;;;14.70;61.00;;;;;;4991914;28;20468;-78
2023/01/31 07:07:42;;;;;;;7.10;3.47;;;14.70;61.10;;;;;;4992708;28;20480;-79
2023/01/31 07:10:11;;;;;;;13.20;3.60;;;14.70;61.10;;;;;;4993846;28;20484;-79
2023/01/31 07:12:39;;;;;;;12.57;4.33;;;14.70;61.20;;;;;;4993136;28;20469;-78
2023/01/31 07:15:08;;;;;;;5.60;3.77;;;14.70;61.10;;;;;;4994951;28;20465;-79
2023/01/31 07:17:38;;;;;;;9.10;4.03;;;14.70;61.10;;;;;;4989860;28;20477;-79
2023/01/31 07:20:08;;;;;;;8.60;3.53;;;14.70;61.20;;;;;;4993492;28;20464;-79
2023/01/31 07:22:36;;;;;;;7.93;3.80;;;14.70;61.10;;;;;;4993360;28;20456;-79
2023/01/31 07:25:04;;;;;;;8.07;3.90;;;14.60;61.20;;;;;;4993650;28;20461;-79
2023/01/31 07:27:33;;;;;;;7.40;3.60;;;14.70;61.20;;;;;;4991499;28;20481;-79
2023/01/31 07:30:01;;;;;;;11.77;4.07;;;14.70;61.10;;;;;;4992496;28;20480;-78
2023/01/31 07:32:30;;;;;;;9.80;3.07;;;14.70;61.20;;;;;;4995294;28;20457;-78
2023/01/31 07:34:59;;;;;;;9.77;3.40;;;14.70;61.00;;;;;;4988723;28;20460;-78
2023/01/31 07:37:27;;;;;;;7.33;3.70;;;14.70;61.10;;;;;;4993235;28;20453;-79
2023/01/31 07:39:55;;;;;;;13.00;3.50;;;14.70;61.10;;;;;;4991876;28;20461;-77
2023/01/31 07:42:24;;;;;;;16.00;2.97;;;14.70;61.20;;;;;;4990621;28;20472;-77
2023/01/31 07:44:51;;;;;;;7.43;3.70;;;14.70;61.10;;;;;;4995898;28;20450;-78
2023/01/31 07:47:20;;;;;;;10.20;3.87;;;14.70;61.20;;;;;;4992437;28;20465;-77
2023/01/31 07:49:49;;;;;;;9.70;3.50;;;14.70;61.20;;;;;;4992920;28;20472;-77
2023/01/31 07:52:18;;;;;;;11.20;4.03;;;14.70;61.20;;;;;;4992113;28;20473;-78
2023/01/31 07:54:46;;;;;;;10.87;3.37;;;14.80;61.20;;;;;;4992679;28;21036;-79
2023/01/31 07:57:16;;;;;;;8.47;3.43;;;14.70;61.10;;;;;;4988176;28;20469;-78
2023/01/31 07:59:44;;;;;;;6.73;3.20;;;14.70;61.20;;;;;;4993148;28;20817;-78
2023/01/31 08:04:58;;;;;;;7.90;3.43;;;14.80;61.30;;;;;;4996069;28;20477;-78
2023/01/31 08:07:28;;;;;;;14.83;3.83;;;14.80;61.30;;;;;;4992182;28;20544;-78
2023/01/31 08:09:57;;;;;;;8.43;3.20;;;14.80;61.30;;;;;;4991954;28;20457;-78
2023/01/31 08:12:25;;;;;;;10.03;3.50;;;14.80;61.40;;;;;;4992983;28;20504;-78
2023/01/31 08:14:53;;;;;;;11.40;3.80;;;14.80;61.30;;;;;;4994479;28;20480;-78
2023/01/31 08:17:21;;;;;;;8.10;3.73;;;14.80;61.30;;;;;;4993871;28;20454;-78
2023/01/31 08:19:49;;;;;;;10.40;3.53;;;14.80;61.40;;;;;;4991523;28;20449;-78
2023/01/31 08:22:17;;;;;;;12.10;3.67;;;14.80;61.40;;;;;;4990228;28;20453;-78
2023/01/31 08:24:47;;;;;;;10.83;3.50;;;14.80;61.40;;;;;;4988719;28;20461;-78
2023/01/31 08:27:15;;;;;;;10.90;3.90;;;14.90;61.30;;;;;;4991716;28;20473;-78
2023/01/31 08:29:43;;;;;;;14.50;4.07;;;14.90;61.30;;;;;;4994794;28;20457;-79
2023/01/31 08:32:11;;;;;;;7.50;3.70;;;14.90;61.40;;;;;;4995276;28;20480;-79
2023/01/31 08:34:40;;;;;;;8.43;3.63;;;14.90;61.30;;;;;;4997411;28;20500;-79
2023/01/31 08:37:08;;;;;;;7.90;3.83;;;14.90;61.30;;;;;;4996311;28;20460;-78
2023/01/31 08:39:36;;;;;;;9.00;3.07;;;14.90;61.30;;;;;;4996838;28;20461;-79
2023/01/31 08:42:05;;;;;;;8.77;3.93;;;14.90;61.30;;;;;;4993275;28;20469;-78
2023/01/31 08:44:33;;;;;;;11.20;4.17;;;14.90;61.30;;;;;;4994579;28;20460;-79
2023/01/31 08:47:01;;;;;;;10.23;3.53;;;14.90;61.40;;;;;;4996898;28;20457;-79
2023/01/31 08:49:29;;;;;;;9.93;3.40;;;14.90;61.40;;;;;;4995210;28;20471;-79
2023/01/31 08:51:58;;;;;;;8.00;2.97;;;14.90;61.30;;;;;;4996723;28;20560;-78
2023/01/31 08:54:26;;;;;;;7.23;3.37;;;14.90;61.40;;;;;;4996283;28;20469;-79
2023/01/31 08:56:54;;;;;;;6.50;3.20;;;15.00;61.20;;;;;;4997182;28;20481;-79
2023/01/31 08:59:23;;;;;;;8.63;4.17;;;15.00;61.40;;;;;;4994995;28;20449;-79
2023/01/31 09:01:51;;;;;;;7.80;3.67;;;15.00;61.40;;;;;;4996565;28;20465;-77
2023/01/31 09:04:19;;;;;;;13.53;4.13;;;15.00;61.20;;;;;;4994562;28;20442;-78
2023/01/31 09:06:48;;;;;;;10.90;4.00;;;15.00;61.20;;;;;;4995105;28;20457;-79
2023/01/31 09:09:16;;;;;;;9.60;3.93;;;15.00;61.30;;;;;;4994988;28;20457;-79
2023/01/31 09:11:43;;;;;;;9.50;4.20;;;15.00;61.00;;;;;;4999064;28;20472;-79
2023/01/31 09:14:11;;;;;;;8.57;3.83;;;15.00;61.20;;;;;;4992381;28;20465;-81
2023/01/31 09:16:41;;;;;;;8.77;3.77;;;15.00;61.20;;;;;;4994247;28;20453;-79
2023/01/31 09:19:10;;;;;;;7.90;3.57;;;15.00;61.30;;;;;;4993131;28;20483;-81
2023/01/31 09:21:38;;;;;;;11.90;4.60;;;15.00;61.20;;;;;;4996740;28;20483;-80
2023/01/31 09:24:07;;;;;;;5.70;3.10;;;15.00;61.30;;;;;;4997309;28;20449;-79
2023/01/31 09:26:35;;;;;;;11.60;3.80;;;15.00;61.30;;;;;;4996354;28;20475;-79
2023/01/31 09:29:03;;;;;;;14.47;4.13;;;15.00;61.30;;;;;;4997637;28;20535;-79
2023/01/31 09:31:31;;;;;;;12.00;3.80;;;15.00;61.20;;;;;;4993340;28;20469;-79
2023/01/31 09:34:00;;;;;;;10.23;3.57;;;15.00;61.30;;;;;;4995343;28;20503;-77
2023/01/31 09:36:28;;;;;;;7.83;3.70;;;15.00;61.40;;;;;;4991495;28;20481;-79
2023/01/31 09:38:57;;;;;;;9.30;3.63;;;15.00;61.30;;;;;;4995825;28;20444;-79
2023/01/31 09:41:26;;;;;;;10.87;3.60;;;15.00;61.30;;;;;;4996527;28;20549;-78
2023/01/31 09:43:56;;;;;;;8.20;3.23;;;15.00;61.30;;;;;;4996276;28;20524;-79
2023/01/31 09:46:25;;;;;;;6.20;3.77;;;15.00;61.30;;;;;;4991514;28;20441;-79
2023/01/31 09:48:54;;;;;;;6.43;3.23;;;15.10;61.40;;;;;;4993277;28;20451;-79
2023/01/31 09:51:24;;;;;;;10.03;3.53;;;15.10;61.30;;;;;;4996534;28;21025;-78
2023/01/31 09:53:52;;;;;;;9.53;3.40;;;15.10;61.30;;;;;;4996278;28;20449;-79
2023/01/31 09:56:23;;;;;;;7.27;3.40;;;15.10;61.40;;;;;;4995585;28;20469;-79
2023/01/31 09:58:56;;;;;;;5.60;3.07;;;15.10;61.40;;;;;;4995066;28;20440;-79
2023/01/31 10:01:25;;;;;;;8.47;3.13;;;15.10;61.40;;;;;;4991156;28;20469;-79
2023/01/31 10:04:09;;;;;;;8.60;3.60;;;15.10;61.40;;;;;;4986703;28;20552;-79
2023/01/31 10:06:42;;;;;;;8.93;2.80;;;15.10;61.40;;;;;;4993875;28;20436;-79
2023/01/31 10:09:12;;;;;;;7.63;3.40;;;15.10;61.40;;;;;;4988609;28;20452;-79
2023/01/31 10:11:41;;;;;;;5.77;3.47;;;15.10;61.40;;;;;;4996603;28;20468;-79
2023/01/31 10:14:18;;;;;;;10.87;3.20;;;15.20;61.50;;;;;;4996310;28;20465;-79
2023/01/31 10:16:48;;;;;;;10.33;3.87;;;15.20;61.50;;;;;;4996793;28;20453;-79
2023/01/31 10:19:19;;;;;;;6.73;3.00;;;15.20;61.20;;;;;;4996390;28;20441;-79
2023/01/31 10:21:50;;;;;;;10.50;3.33;;;15.20;61.30;;;;;;4996483;28;20476;-79
2023/01/31 10:24:22;;;;;;;7.07;3.20;;;15.20;61.20;;;;;;4995801;28;20440;-78
2023/01/31 10:26:51;;;;;;;4.97;2.90;;;15.20;61.40;;;;;;4995818;28;20471;-79
2023/01/31 10:29:26;;;;;;;7.47;3.37;;;15.20;61.40;;;;;;4992775;28;20449;-79
2023/01/31 10:31:55;;;;;;;6.17;3.10;;;15.20;61.40;;;;;;4995111;28;20468;-78
2023/01/31 10:34:24;;;;;;;7.70;3.10;;;15.20;61.40;;;;;;4996198;28;20504;-78
2023/01/31 10:36:56;;;;;;;13.83;4.03;;;15.20;61.30;;;;;;4995528;28;20442;-79
2023/01/31 10:39:26;;;;;;;10.63;3.40;;;15.20;61.20;;;;;;4990831;28;20443;-79
2023/01/31 10:42:14;;;;;;;4.43;2.60;;;15.20;61.20;;;;;;4995630;28;20464;-79
2023/01/31 10:44:44;;;;;;;8.93;3.70;;;15.30;61.20;;;;;;4986856;28;20440;-79
2023/01/31 10:47:13;;;;;;;12.40;3.47;;;15.20;61.10;;;;;;4994523;28;20448;-79
2023/01/31 10:49:42;;;;;;;8.10;3.03;;;15.20;61.30;;;;;;4980774;28;20446;-79
2023/01/31 10:52:27;;;;;;;8.00;3.47;;;15.30;61.20;;;;;;4995602;28;20467;-79
2023/01/31 10:55:04;;;;;;;7.23;3.00;;;15.30;61.30;;;;;;4980336;28;20482;-79
2023/01/31 10:57:32;;;;;;;9.27;3.40;;;15.30;61.30;;;;;;4995651;28;20487;-79
2023/01/31 11:00:00;;;;;;;7.17;2.73;;;15.30;61.30;;;;;;4987413;28;20499;-79
2023/01/31 11:02:28;;;;;;;11.80;3.17;;;15.30;61.20;;;;;;4991662;28;20441;-79
2023/01/31 11:04:56;;;;;;;6.20;2.77;;;15.40;61.20;;;;;;4991377;28;20537;-79
2023/01/31 11:07:28;;;;;;;9.50;2.90;;;15.40;61.20;;;;;;4993583;28;20452;-79
2023/01/31 11:09:57;;;;;;;7.50;2.73;;;15.40;61.10;;;;;;4993215;28;20452;-78
2023/01/31 11:12:40;;;;;;;8.63;3.07;;;15.40;61.00;;;;;;4995635;28;20465;-79
2023/01/31 11:15:14;;;;;;;10.10;3.50;;;15.50;61.00;;;;;;4995053;28;20469;-78
2023/01/31 11:17:42;;;;;;;11.23;2.97;;;15.50;61.00;;;;;;4993873;28;20440;-79
2023/01/31 11:20:20;;;;;;;8.50;3.10;;;15.50;61.10;;;;;;4993178;28;20460;-79
2023/01/31 11:22:49;;;;;;;7.30;3.17;;;15.50;61.10;;;;;;4990040;28;20456;-79
2023/01/31 11:25:19;;;;;;;5.80;2.77;;;15.50;60.90;;;;;;4990479;28;20448;-79
2023/01/31 11:27:47;;;;;;;6.53;2.87;;;15.50;61.00;;;;;;4995234;28;20445;-79
2023/01/31 11:30:22;;;;;;;8.37;2.97;;;15.60;60.90;;;;;;4987111;28;20461;-80
2023/01/31 11:32:51;;;;;;;9.43;2.87;;;15.50;60.90;;;;;;4994745;28;20448;-79
2023/01/31 11:35:24;;;;;;;10.50;2.67;;;15.50;61.00;;;;;;4991852;28;20469;-79
2023/01/31 11:37:54;;;;;;;6.30;2.60;;;15.60;60.90;;;;;;4993192;28;20440;-78
2023/01/31 11:40:26;;;;;;;8.10;2.50;;;15.50;60.90;;;;;;4994417;28;20552;-79
2023/01/31 11:42:55;;;;;;;5.20;2.60;;;15.50;60.90;;;;;;4995747;28;20449;-79
2023/01/31 11:45:26;;;;;;;4.90;2.50;;;15.50;60.90;;;;;;4991257;28;20451;-79
2023/01/31 11:47:55;;;;;;;7.40;2.83;;;15.50;61.00;;;;;;4985468;28;20446;-79
2023/01/31 11:50:24;;;;;;;9.97;2.73;;;15.60;61.00;;;;;;4994604;28;20477;-79
2023/01/31 11:52:57;;;;;;;7.20;3.00;;;15.50;60.80;;;;;;4992171;28;20536;-79
2023/01/31 11:55:25;;;;;;;6.37;2.90;;;15.50;60.90;;;;;;4988034;28;20472;-77
2023/01/31 11:57:57;;;;;;;7.20;2.90;;;15.50;61.00;;;;;;4992221;28;20454;-79
2023/01/31 12:00:26;;;;;;;4.90;2.37;;;15.50;61.10;;;;;;4994330;28;20476;-79
2023/01/31 12:02:59;;;;;;;5.07;2.53;;;15.50;61.10;;;;;;4985861;28;20446;-79
2023/01/31 12:05:36;;;;;;;5.93;2.40;;;15.50;61.00;;;;;;4986130;28;20429;-79
2023/01/31 12:08:06;;;;;;;3.20;2.03;;;15.50;60.90;;;;;;4992350;28;20448;-79
2023/01/31 12:10:40;;;;;;;5.00;2.63;;;15.50;61.00;;;;;;4993748;28;20469;-79
2023/01/31 12:13:15;;;;;;;7.63;2.60;;;15.60;61.10;;;;;;4993023;28;20433;-78
2023/01/31 12:15:48;;;;;;;8.73;2.90;;;15.50;61.00;;;;;;4992882;28;20472;-79
2023/01/31 12:18:21;;;;;;;5.50;2.40;;;15.60;61.20;;;;;;4995059;28;20441;-79
2023/01/31 12:20:53;;;;;;;9.70;2.90;;;15.60;61.10;;;;;;4995410;28;20485;-79
2023/01/31 12:23:27;;;;;;;5.70;2.60;;;15.60;61.00;;;;;;4985163;28;20438;-79
2023/01/31 12:26:04;;;;;;;5.60;2.50;;;15.60;61.00;;;;;;4988241;28;20473;-79
2023/01/31 12:28:51;;;;;;;3.20;2.17;;;15.60;60.90;;;;;;4993231;28;20464;-77
2023/01/31 12:31:47;;;;;;;4.13;2.50;;;15.60;61.00;;;;;;4983878;28;20473;-78
2023/01/31 12:34:33;;;;;;;4.83;2.30;;;15.70;60.90;;;;;;4985087;28;20441;-78
2023/01/31 12:37:15;;;;;;;6.13;2.27;;;15.70;61.00;;;;;;4992215;28;20483;-78
2023/01/31 12:39:51;;;;;;;6.10;2.80;;;15.70;61.00;;;;;;4993038;28;20441;-77
2023/01/31 12:42:28;;;;;;;4.10;2.70;;;15.70;61.10;;;;;;4984634;28;20464;-78
2023/01/31 12:45:00;;;;;;;5.27;3.10;;;15.80;61.00;;;;;;4992466;28;20440;-78
2023/01/31 12:47:59;;;;;;;2.33;2.10;;;15.80;61.10;;;;;;4992513;28;20448;-78
2023/01/31 12:50:30;;;;;;;6.10;2.60;;;15.90;60.90;;;;;;4968353;28;20492;-78
2023/01/31 12:53:12;;;;;;;4.70;2.47;;;15.90;61.00;;;;;;4988546;28;20433;-78
2023/01/31 12:55:44;;;;;;;3.80;2.27;;;15.90;60.70;;;;;;4991445;28;20483;-78
2023/01/31 12:58:21;;;;;;;4.80;2.70;;;15.90;60.70;;;;;;4982351;28;20453;-78
2023/01/31 13:00:52;;;;;;;4.10;2.40;;;15.90;60.70;;;;;;4992170;28;20468;-77
2023/01/31 13:03:31;;;;;;;3.13;2.27;;;15.90;60.70;;;;;;4981032;28;20449;-76
2023/01/31 13:06:02;;;;;;;5.73;2.37;;;15.90;60.70;;;;;;4985884;28;20452;-78
2023/01/31 13:08:31;;;;;;;4.57;2.10;;;15.90;60.70;;;;;;4992315;28;20440;-78